sensor_id;sensor_type;location;lat;lon;timestamp;temperature;humidity
25436;DHT22;13363;52.772;-3.890;2023-07-24T00:01:55;14.60;99.90
25436;DHT22;13363;52.772;-3.890;2023-07-24T00:04:20;14.70;99.90
25436;DHT22;13363;52.772;-3.890;2023-07-24T00:06:46;14.60;99.90
25436;DHT22;13363;52.772;-3.890;2023-07-24T00:09:12;14.50;99.90
25436;DHT22;13363;52.772;-3.890;2023-07-24T00:11:38;14.50;99.90
25436;DHT22;13363;52.772;-3.890;2023-07-24T00:14:04;14.50;99.90
25436;DHT22;13363;52.772;-3.890;2023-07-24T00:16:29;14.50;99.90
25436;DHT22;13363;52.772;-3.890;2023-07-24T00:18:55;14.40;99.90
25436;DHT22;13363;52.772;-3.890;2023-07-24T00:21:21;14.40;99.90
25436;DHT22;13363;52.772;-3.890;2023-07-24T00:23:47;14.40;99.90
25436;DHT22;13363;52.772;-3.890;2023-07-24T00:26:13;14.40;99.90
25436;DHT22;13363;52.772;-3.890;2023-07-24T00:35:57;14.40;99.90
25436;DHT22;13363;52.772;-3.890;2023-07-24T00:38:23;15.60;99.90
25436;DHT22;13363;52.772;-3.890;2023-07-24T00:45:42;14.30;99.90
25436;DHT22;13363;52.772;-3.890;2023-07-24T00:48:08;14.30;99.90
25436;DHT22;13363;52.772;-3.890;2023-07-24T00:50:35;14.20;99.90
25436;DHT22;13363;52.772;-3.890;2023-07-24T00:53:01;14.20;99.90
25436;DHT22;13363;52.772;-3.890;2023-07-24T00:55:27;14.30;99.90
25436;DHT22;13363;52.772;-3.890;2023-07-24T00:57:54;14.30;99.90
25436;DHT22;13363;52.772;-3.890;2023-07-24T01:00:20;14.30;99.90
25436;DHT22;13363;52.772;-3.890;2023-07-24T01:02:47;14.20;99.90
25436;DHT22;13363;52.772;-3.890;2023-07-24T01:05:14;14.30;99.90
25436;DHT22;13363;52.772;-3.890;2023-07-24T01:10:09;14.10;99.90
25436;DHT22;13363;52.772;-3.890;2023-07-24T01:18:08;14.10;99.90
25436;DHT22;13363;52.772;-3.890;2023-07-24T01:20:37;14.10;99.90
25436;DHT22;13363;52.772;-3.890;2023-07-24T01:26:00;14.00;99.90
25436;DHT22;13363;52.772;-3.890;2023-07-24T01:28:28;14.10;99.90
25436;DHT22;13363;52.772;-3.890;2023-07-24T01:30:55;14.10;99.90
25436;DHT22;13363;52.772;-3.890;2023-07-24T01:33:22;14.10;99.90
25436;DHT22;13363;52.772;-3.890;2023-07-24T01:35:54;14.00;99.90
25436;DHT22;13363;52.772;-3.890;2023-07-24T01:38:22;13.90;99.90
25436;DHT22;13363;52.772;-3.890;2023-07-24T01:40:49;13.90;99.90
25436;DHT22;13363;52.772;-3.890;2023-07-24T01:43:16;13.90;99.90
25436;DHT22;13363;52.772;-3.890;2023-07-24T01:45:42;13.80;99.90
25436;DHT22;13363;52.772;-3.890;2023-07-24T01:48:08;13.90;99.90
25436;DHT22;13363;52.772;-3.890;2023-07-24T01:50:33;13.90;99.90
25436;DHT22;13363;52.772;-3.890;2023-07-24T01:52:59;13.90;99.90
25436;DHT22;13363;52.772;-3.890;2023-07-24T01:55:28;13.90;99.90
25436;DHT22;13363;52.772;-3.890;2023-07-24T01:57:54;14.00;99.90
25436;DHT22;13363;52.772;-3.890;2023-07-24T02:00:20;13.90;99.90
25436;DHT22;13363;52.772;-3.890;2023-07-24T02:02:46;13.80;99.90
25436;DHT22;13363;52.772;-3.890;2023-07-24T02:05:12;13.80;99.90
25436;DHT22;13363;52.772;-3.890;2023-07-24T02:07:38;13.80;99.90
25436;DHT22;13363;52.772;-3.890;2023-07-24T02:10:04;13.80;99.90
25436;DHT22;13363;52.772;-3.890;2023-07-24T02:12:30;13.80;99.90
25436;DHT22;13363;52.772;-3.890;2023-07-24T02:14:56;13.70;99.90
25436;DHT22;13363;52.772;-3.890;2023-07-24T02:17:23;13.70;99.90
25436;DHT22;13363;52.772;-3.890;2023-07-24T02:19:49;13.70;99.90
25436;DHT22;13363;52.772;-3.890;2023-07-24T02:22:15;13.70;99.90
25436;DHT22;13363;52.772;-3.890;2023-07-24T02:24:41;13.70;99.90
25436;DHT22;13363;52.772;-3.890;2023-07-24T02:27:07;13.70;99.90
25436;DHT22;13363;52.772;-3.890;2023-07-24T02:29:33;13.70;99.90
25436;DHT22;13363;52.772;-3.890;2023-07-24T02:32:00;13.60;99.90
25436;DHT22;13363;52.772;-3.890;2023-07-24T02:34:26;13.60;99.90
25436;DHT22;13363;52.772;-3.890;2023-07-24T02:36:53;13.70;99.90
25436;DHT22;13363;52.772;-3.890;2023-07-24T02:39:20;13.60;99.90
25436;DHT22;13363;52.772;-3.890;2023-07-24T02:41:46;13.60;99.90
25436;DHT22;13363;52.772;-3.890;2023-07-24T02:44:12;13.60;99.90
25436;DHT22;13363;52.772;-3.890;2023-07-24T02:46:38;13.60;99.90
25436;DHT22;13363;52.772;-3.890;2023-07-24T02:49:04;13.60;99.90
25436;DHT22;13363;52.772;-3.890;2023-07-24T02:51:31;13.60;99.90
25436;DHT22;13363;52.772;-3.890;2023-07-24T02:53:57;13.60;99.90
25436;DHT22;13363;52.772;-3.890;2023-07-24T02:56:23;13.60;99.90
25436;DHT22;13363;52.772;-3.890;2023-07-24T02:58:48;13.60;99.90
25436;DHT22;13363;52.772;-3.890;2023-07-24T03:01:14;13.50;99.90
25436;DHT22;13363;52.772;-3.890;2023-07-24T03:03:41;13.50;99.90
25436;DHT22;13363;52.772;-3.890;2023-07-24T03:06:07;13.60;99.90
25436;DHT22;13363;52.772;-3.890;2023-07-24T03:08:33;13.50;99.90
25436;DHT22;13363;52.772;-3.890;2023-07-24T03:10:59;13.50;99.90
25436;DHT22;13363;52.772;-3.890;2023-07-24T03:13:25;13.50;99.90
25436;DHT22;13363;52.772;-3.890;2023-07-24T03:15:55;14.30;99.90
25436;DHT22;13363;52.772;-3.890;2023-07-24T03:18:22;13.50;99.90
25436;DHT22;13363;52.772;-3.890;2023-07-24T03:20:48;13.50;99.90
25436;DHT22;13363;52.772;-3.890;2023-07-24T03:23:14;13.40;99.90
25436;DHT22;13363;52.772;-3.890;2023-07-24T03:25:40;13.50;99.90
25436;DHT22;13363;52.772;-3.890;2023-07-24T03:28:06;13.40;99.90
25436;DHT22;13363;52.772;-3.890;2023-07-24T03:30:32;13.50;99.90
25436;DHT22;13363;52.772;-3.890;2023-07-24T03:32:58;13.40;99.90
25436;DHT22;13363;52.772;-3.890;2023-07-24T03:35:24;13.40;99.90
25436;DHT22;13363;52.772;-3.890;2023-07-24T03:37:49;13.40;99.90
25436;DHT22;13363;52.772;-3.890;2023-07-24T03:40:15;13.40;99.90
25436;DHT22;13363;52.772;-3.890;2023-07-24T03:45:08;13.40;99.90
25436;DHT22;13363;52.772;-3.890;2023-07-24T03:47:34;13.40;99.90
25436;DHT22;13363;52.772;-3.890;2023-07-24T03:50:00;13.40;99.90
25436;DHT22;13363;52.772;-3.890;2023-07-24T03:52:25;13.30;99.90
25436;DHT22;13363;52.772;-3.890;2023-07-24T03:54:52;13.40;99.90
25436;DHT22;13363;52.772;-3.890;2023-07-24T03:57:18;13.30;99.90
25436;DHT22;13363;52.772;-3.890;2023-07-24T03:59:44;13.40;99.90
25436;DHT22;13363;52.772;-3.890;2023-07-24T04:02:10;13.40;99.90
25436;DHT22;13363;52.772;-3.890;2023-07-24T04:04:36;13.40;99.90
25436;DHT22;13363;52.772;-3.890;2023-07-24T04:07:02;13.40;99.90
25436;DHT22;13363;52.772;-3.890;2023-07-24T04:09:28;13.30;99.90
25436;DHT22;13363;52.772;-3.890;2023-07-24T04:11:54;13.30;99.90
25436;DHT22;13363;52.772;-3.890;2023-07-24T04:14:20;13.40;99.90
25436;DHT22;13363;52.772;-3.890;2023-07-24T04:16:46;13.40;99.90
25436;DHT22;13363;52.772;-3.890;2023-07-24T04:19:12;13.40;99.90
25436;DHT22;13363;52.772;-3.890;2023-07-24T04:21:37;13.40;99.90
25436;DHT22;13363;52.772;-3.890;2023-07-24T04:24:03;13.40;99.90
25436;DHT22;13363;52.772;-3.890;2023-07-24T04:26:29;13.40;99.90
25436;DHT22;13363;52.772;-3.890;2023-07-24T04:28:55;13.40;99.90
25436;DHT22;13363;52.772;-3.890;2023-07-24T04:31:21;13.40;99.90
25436;DHT22;13363;52.772;-3.890;2023-07-24T04:33:47;13.40;99.90
25436;DHT22;13363;52.772;-3.890;2023-07-24T04:36:12;13.40;99.90
25436;DHT22;13363;52.772;-3.890;2023-07-24T04:38:38;13.40;99.90
25436;DHT22;13363;52.772;-3.890;2023-07-24T04:41:04;13.40;99.90
25436;DHT22;13363;52.772;-3.890;2023-07-24T04:43:30;13.50;99.90
25436;DHT22;13363;52.772;-3.890;2023-07-24T04:45:56;13.40;99.90
25436;DHT22;13363;52.772;-3.890;2023-07-24T04:48:22;13.40;99.90
25436;DHT22;13363;52.772;-3.890;2023-07-24T04:50:55;13.50;99.90
25436;DHT22;13363;52.772;-3.890;2023-07-24T04:53:22;13.70;99.90
25436;DHT22;13363;52.772;-3.890;2023-07-24T04:55:48;13.50;99.90
25436;DHT22;13363;52.772;-3.890;2023-07-24T04:58:14;13.50;99.90
25436;DHT22;13363;52.772;-3.890;2023-07-24T05:00:39;13.50;99.90
25436;DHT22;13363;52.772;-3.890;2023-07-24T05:03:05;13.50;99.90
25436;DHT22;13363;52.772;-3.890;2023-07-24T05:05:33;13.50;99.90
25436;DHT22;13363;52.772;-3.890;2023-07-24T05:07:59;13.50;99.90
25436;DHT22;13363;52.772;-3.890;2023-07-24T05:10:25;13.50;99.90
25436;DHT22;13363;52.772;-3.890;2023-07-24T05:12:51;13.50;99.90
25436;DHT22;13363;52.772;-3.890;2023-07-24T05:15:16;13.60;99.90
25436;DHT22;13363;52.772;-3.890;2023-07-24T05:17:43;13.50;99.90
25436;DHT22;13363;52.772;-3.890;2023-07-24T05:20:10;13.60;99.90
25436;DHT22;13363;52.772;-3.890;2023-07-24T05:22:35;13.60;99.90
25436;DHT22;13363;52.772;-3.890;2023-07-24T05:25:01;13.70;99.90
25436;DHT22;13363;52.772;-3.890;2023-07-24T05:27:27;13.70;99.90
25436;DHT22;13363;52.772;-3.890;2023-07-24T05:29:55;13.80;99.90
25436;DHT22;13363;52.772;-3.890;2023-07-24T05:32:21;13.80;99.90
25436;DHT22;13363;52.772;-3.890;2023-07-24T05:34:46;13.80;99.90
25436;DHT22;13363;52.772;-3.890;2023-07-24T05:37:12;13.80;99.90
25436;DHT22;13363;52.772;-3.890;2023-07-24T05:39:38;13.80;99.90
25436;DHT22;13363;52.772;-3.890;2023-07-24T05:42:04;13.80;99.90
25436;DHT22;13363;52.772;-3.890;2023-07-24T05:44:30;13.80;99.90
25436;DHT22;13363;52.772;-3.890;2023-07-24T05:46:56;13.90;99.90
25436;DHT22;13363;52.772;-3.890;2023-07-24T05:49:22;13.90;99.90
25436;DHT22;13363;52.772;-3.890;2023-07-24T05:51:47;13.90;99.90
25436;DHT22;13363;52.772;-3.890;2023-07-24T05:54:13;14.00;99.90
25436;DHT22;13363;52.772;-3.890;2023-07-24T05:56:40;14.00;99.90
25436;DHT22;13363;52.772;-3.890;2023-07-24T05:59:06;14.00;99.90
25436;DHT22;13363;52.772;-3.890;2023-07-24T06:01:32;14.00;99.90
25436;DHT22;13363;52.772;-3.890;2023-07-24T06:03:58;14.00;99.90
25436;DHT22;13363;52.772;-3.890;2023-07-24T06:06:23;14.10;99.90
25436;DHT22;13363;52.772;-3.890;2023-07-24T06:08:49;14.10;99.90
25436;DHT22;13363;52.772;-3.890;2023-07-24T06:13:43;14.30;99.90
25436;DHT22;13363;52.772;-3.890;2023-07-24T06:16:08;14.30;99.90
25436;DHT22;13363;52.772;-3.890;2023-07-24T06:18:34;14.40;99.90
25436;DHT22;13363;52.772;-3.890;2023-07-24T06:21:00;14.30;99.90
25436;DHT22;13363;52.772;-3.890;2023-07-24T06:23:26;14.40;99.90
25436;DHT22;13363;52.772;-3.890;2023-07-24T06:25:52;14.40;99.90
25436;DHT22;13363;52.772;-3.890;2023-07-24T06:30:44;14.50;99.90
25436;DHT22;13363;52.772;-3.890;2023-07-24T06:33:10;14.60;99.90
25436;DHT22;13363;52.772;-3.890;2023-07-24T06:35:36;14.90;99.90
25436;DHT22;13363;52.772;-3.890;2023-07-24T06:38:02;15.30;99.90
25436;DHT22;13363;52.772;-3.890;2023-07-24T06:40:28;15.60;99.90
25436;DHT22;13363;52.772;-3.890;2023-07-24T06:45:20;15.70;99.90
25436;DHT22;13363;52.772;-3.890;2023-07-24T06:47:45;15.70;99.90
25436;DHT22;13363;52.772;-3.890;2023-07-24T06:50:11;15.70;99.90
25436;DHT22;13363;52.772;-3.890;2023-07-24T06:55:03;15.90;99.90
25436;DHT22;13363;52.772;-3.890;2023-07-24T06:57:29;16.10;99.90
25436;DHT22;13363;52.772;-3.890;2023-07-24T06:59:55;16.20;99.90
25436;DHT22;13363;52.772;-3.890;2023-07-24T07:02:21;16.30;99.90
25436;DHT22;13363;52.772;-3.890;2023-07-24T07:04:47;16.30;99.90
25436;DHT22;13363;52.772;-3.890;2023-07-24T07:07:12;16.40;99.90
25436;DHT22;13363;52.772;-3.890;2023-07-24T07:09:38;16.30;99.90
25436;DHT22;13363;52.772;-3.890;2023-07-24T07:12:04;16.30;99.90
25436;DHT22;13363;52.772;-3.890;2023-07-24T07:14:30;16.60;99.90
25436;DHT22;13363;52.772;-3.890;2023-07-24T07:16:56;16.70;99.90
25436;DHT22;13363;52.772;-3.890;2023-07-24T07:19:22;16.60;99.90
25436;DHT22;13363;52.772;-3.890;2023-07-24T07:21:48;16.50;99.90
25436;DHT22;13363;52.772;-3.890;2023-07-24T07:24:13;16.60;99.90
25436;DHT22;13363;52.772;-3.890;2023-07-24T07:26:39;16.60;99.90
25436;DHT22;13363;52.772;-3.890;2023-07-24T07:29:05;16.60;99.90
25436;DHT22;13363;52.772;-3.890;2023-07-24T07:31:31;16.50;99.90
25436;DHT22;13363;52.772;-3.890;2023-07-24T07:33:56;16.50;99.90
25436;DHT22;13363;52.772;-3.890;2023-07-24T07:36:22;16.20;99.90
25436;DHT22;13363;52.772;-3.890;2023-07-24T07:38:48;16.10;99.90
25436;DHT22;13363;52.772;-3.890;2023-07-24T07:41:14;16.40;99.90
25436;DHT22;13363;52.772;-3.890;2023-07-24T07:43:40;16.60;99.90
25436;DHT22;13363;52.772;-3.890;2023-07-24T07:46:06;17.50;99.90
25436;DHT22;13363;52.772;-3.890;2023-07-24T07:48:32;19.00;99.90
25436;DHT22;13363;52.772;-3.890;2023-07-24T07:50:58;20.20;99.90
25436;DHT22;13363;52.772;-3.890;2023-07-24T07:53:24;20.60;99.90
25436;DHT22;13363;52.772;-3.890;2023-07-24T07:55:57;21.30;99.90
25436;DHT22;13363;52.772;-3.890;2023-07-24T07:58:23;21.40;99.90
25436;DHT22;13363;52.772;-3.890;2023-07-24T08:00:49;21.10;99.90
25436;DHT22;13363;52.772;-3.890;2023-07-24T08:05:41;20.60;99.90
25436;DHT22;13363;52.772;-3.890;2023-07-24T08:08:07;21.00;99.90
25436;DHT22;13363;52.772;-3.890;2023-07-24T08:10:33;21.20;99.90
25436;DHT22;13363;52.772;-3.890;2023-07-24T08:12:58;21.10;99.90
25436;DHT22;13363;52.772;-3.890;2023-07-24T08:15:24;20.60;99.90
25436;DHT22;13363;52.772;-3.890;2023-07-24T08:17:50;20.10;99.90
25436;DHT22;13363;52.772;-3.890;2023-07-24T08:20:16;19.70;99.90
25436;DHT22;13363;52.772;-3.890;2023-07-24T08:27:34;18.30;99.90
25436;DHT22;13363;52.772;-3.890;2023-07-24T08:30:00;17.90;99.90
25436;DHT22;13363;52.772;-3.890;2023-07-24T08:32:25;17.50;99.90
25436;DHT22;13363;52.772;-3.890;2023-07-24T08:34:51;17.50;99.90
25436;DHT22;13363;52.772;-3.890;2023-07-24T08:39:43;17.20;99.90
25436;DHT22;13363;52.772;-3.890;2023-07-24T08:42:12;17.10;99.90
25436;DHT22;13363;52.772;-3.890;2023-07-24T08:44:38;17.00;99.90
25436;DHT22;13363;52.772;-3.890;2023-07-24T08:47:06;16.90;99.90
25436;DHT22;13363;52.772;-3.890;2023-07-24T08:49:35;16.90;99.90
25436;DHT22;13363;52.772;-3.890;2023-07-24T08:52:02;16.90;99.90
25436;DHT22;13363;52.772;-3.890;2023-07-24T08:54:30;17.00;99.90
25436;DHT22;13363;52.772;-3.890;2023-07-24T08:56:56;17.10;99.90
25436;DHT22;13363;52.772;-3.890;2023-07-24T09:01:48;17.70;99.90
25436;DHT22;13363;52.772;-3.890;2023-07-24T09:04:14;18.00;99.90
25436;DHT22;13363;52.772;-3.890;2023-07-24T09:09:14;18.10;99.90
25436;DHT22;13363;52.772;-3.890;2023-07-24T09:14:26;17.70;99.90
25436;DHT22;13363;52.772;-3.890;2023-07-24T09:17:06;17.40;99.90
25436;DHT22;13363;52.772;-3.890;2023-07-24T09:19:32;17.00;99.90
25436;DHT22;13363;52.772;-3.890;2023-07-24T09:22:12;17.10;99.90
25436;DHT22;13363;52.772;-3.890;2023-07-24T09:25:09;17.10;99.90
25436;DHT22;13363;52.772;-3.890;2023-07-24T09:27:35;17.00;99.90
25436;DHT22;13363;52.772;-3.890;2023-07-24T09:30:01;17.10;99.90
25436;DHT22;13363;52.772;-3.890;2023-07-24T09:32:27;17.20;99.90
25436;DHT22;13363;52.772;-3.890;2023-07-24T09:34:56;17.10;99.90
25436;DHT22;13363;52.772;-3.890;2023-07-24T09:37:50;17.00;99.90
25436;DHT22;13363;52.772;-3.890;2023-07-24T09:40:16;17.10;99.90
25436;DHT22;13363;52.772;-3.890;2023-07-24T09:42:42;17.40;99.90
25436;DHT22;13363;52.772;-3.890;2023-07-24T09:45:08;17.60;99.90
25436;DHT22;13363;52.772;-3.890;2023-07-24T09:47:34;18.00;99.90
25436;DHT22;13363;52.772;-3.890;2023-07-24T09:50:03;18.40;99.90
25436;DHT22;13363;52.772;-3.890;2023-07-24T09:52:30;18.40;99.90
25436;DHT22;13363;52.772;-3.890;2023-07-24T09:55:22;18.70;99.90
25436;DHT22;13363;52.772;-3.890;2023-07-24T09:57:54;19.00;99.90
25436;DHT22;13363;52.772;-3.890;2023-07-24T10:00:21;19.40;99.90
25436;DHT22;13363;52.772;-3.890;2023-07-24T10:02:47;19.30;99.90
25436;DHT22;13363;52.772;-3.890;2023-07-24T10:05:14;19.10;99.90
25436;DHT22;13363;52.772;-3.890;2023-07-24T10:07:41;19.00;99.90
25436;DHT22;13363;52.772;-3.890;2023-07-24T10:10:08;18.90;99.90
25436;DHT22;13363;52.772;-3.890;2023-07-24T10:12:34;18.70;99.90
25436;DHT22;13363;52.772;-3.890;2023-07-24T10:15:01;18.40;99.90
25436;DHT22;13363;52.772;-3.890;2023-07-24T10:17:41;18.10;99.90
25436;DHT22;13363;52.772;-3.890;2023-07-24T10:20:11;17.70;99.90
25436;DHT22;13363;52.772;-3.890;2023-07-24T10:22:41;17.60;99.90
25436;DHT22;13363;52.772;-3.890;2023-07-24T10:25:08;17.60;99.90
25436;DHT22;13363;52.772;-3.890;2023-07-24T10:27:43;17.60;99.90
25436;DHT22;13363;52.772;-3.890;2023-07-24T10:30:12;17.70;99.90
25436;DHT22;13363;52.772;-3.890;2023-07-24T10:32:47;17.80;99.90
25436;DHT22;13363;52.772;-3.890;2023-07-24T10:35:15;18.00;99.90
25436;DHT22;13363;52.772;-3.890;2023-07-24T10:37:43;17.80;99.90
25436;DHT22;13363;52.772;-3.890;2023-07-24T10:40:22;18.00;99.90
25436;DHT22;13363;52.772;-3.890;2023-07-24T10:43:05;18.40;99.90
25436;DHT22;13363;52.772;-3.890;2023-07-24T10:45:52;18.40;99.90
25436;DHT22;13363;52.772;-3.890;2023-07-24T10:48:19;18.20;99.90
25436;DHT22;13363;52.772;-3.890;2023-07-24T10:50:47;18.10;99.90
25436;DHT22;13363;52.772;-3.890;2023-07-24T10:53:16;18.40;99.90
25436;DHT22;13363;52.772;-3.890;2023-07-24T10:55:46;18.90;99.90
25436;DHT22;13363;52.772;-3.890;2023-07-24T10:58:16;19.00;99.90
25436;DHT22;13363;52.772;-3.890;2023-07-24T11:00:43;19.20;99.90
25436;DHT22;13363;52.772;-3.890;2023-07-24T11:03:10;19.40;99.90
25436;DHT22;13363;52.772;-3.890;2023-07-24T11:05:44;19.60;99.90
25436;DHT22;13363;52.772;-3.890;2023-07-24T11:08:15;19.60;99.90
25436;DHT22;13363;52.772;-3.890;2023-07-24T11:11:00;19.50;99.90
25436;DHT22;13363;52.772;-3.890;2023-07-24T11:13:28;19.70;99.90
25436;DHT22;13363;52.772;-3.890;2023-07-24T11:15:54;19.90;99.90
25436;DHT22;13363;52.772;-3.890;2023-07-24T11:18:21;19.90;99.90
25436;DHT22;13363;52.772;-3.890;2023-07-24T11:20:52;20.00;99.90
25436;DHT22;13363;52.772;-3.890;2023-07-24T11:23:19;19.90;99.90
25436;DHT22;13363;52.772;-3.890;2023-07-24T11:25:45;20.10;99.90
25436;DHT22;13363;52.772;-3.890;2023-07-24T11:28:14;19.70;99.90
25436;DHT22;13363;52.772;-3.890;2023-07-24T11:30:44;19.50;99.90
25436;DHT22;13363;52.772;-3.890;2023-07-24T11:33:15;19.20;99.90
25436;DHT22;13363;52.772;-3.890;2023-07-24T11:35:42;19.30;99.90
25436;DHT22;13363;52.772;-3.890;2023-07-24T11:38:08;19.60;99.90
25436;DHT22;13363;52.772;-3.890;2023-07-24T11:40:42;19.30;99.90
25436;DHT22;13363;52.772;-3.890;2023-07-24T11:43:19;19.60;99.90
25436;DHT22;13363;52.772;-3.890;2023-07-24T11:45:46;20.20;99.90
25436;DHT22;13363;52.772;-3.890;2023-07-24T11:48:18;20.40;99.90
25436;DHT22;13363;52.772;-3.890;2023-07-24T11:50:49;19.90;99.90
25436;DHT22;13363;52.772;-3.890;2023-07-24T11:53:26;19.40;99.90
25436;DHT22;13363;52.772;-3.890;2023-07-24T11:55:55;19.50;99.90
25436;DHT22;13363;52.772;-3.890;2023-07-24T11:58:22;19.30;99.90
25436;DHT22;13363;52.772;-3.890;2023-07-24T12:00:51;19.50;99.90
25436;DHT22;13363;52.772;-3.890;2023-07-24T12:03:21;19.40;99.90
25436;DHT22;13363;52.772;-3.890;2023-07-24T12:05:50;19.50;99.90
25436;DHT22;13363;52.772;-3.890;2023-07-24T12:08:29;19.60;99.90
25436;DHT22;13363;52.772;-3.890;2023-07-24T12:10:55;19.90;99.90
25436;DHT22;13363;52.772;-3.890;2023-07-24T12:13:21;19.70;99.90
25436;DHT22;13363;52.772;-3.890;2023-07-24T12:15:47;19.80;99.90
25436;DHT22;13363;52.772;-3.890;2023-07-24T12:18:13;20.00;99.90
25436;DHT22;13363;52.772;-3.890;2023-07-24T12:20:38;19.70;99.90
25436;DHT22;13363;52.772;-3.890;2023-07-24T12:23:05;18.80;99.90
25436;DHT22;13363;52.772;-3.890;2023-07-24T12:25:31;18.60;99.90
25436;DHT22;13363;52.772;-3.890;2023-07-24T12:27:57;19.10;99.90
25436;DHT22;13363;52.772;-3.890;2023-07-24T12:30:23;19.30;99.90
25436;DHT22;13363;52.772;-3.890;2023-07-24T12:32:48;19.40;99.90
25436;DHT22;13363;52.772;-3.890;2023-07-24T12:35:15;19.30;99.90
25436;DHT22;13363;52.772;-3.890;2023-07-24T12:37:41;19.40;99.90
25436;DHT22;13363;52.772;-3.890;2023-07-24T12:40:08;19.70;99.90
25436;DHT22;13363;52.772;-3.890;2023-07-24T12:42:35;20.10;99.90
25436;DHT22;13363;52.772;-3.890;2023-07-24T12:45:01;19.90;99.90
25436;DHT22;13363;52.772;-3.890;2023-07-24T12:47:30;19.80;99.90
25436;DHT22;13363;52.772;-3.890;2023-07-24T12:49:56;19.70;99.90
25436;DHT22;13363;52.772;-3.890;2023-07-24T12:52:23;19.30;99.90
25436;DHT22;13363;52.772;-3.890;2023-07-24T12:54:49;19.00;99.90
25436;DHT22;13363;52.772;-3.890;2023-07-24T12:57:15;19.60;99.90
25436;DHT22;13363;52.772;-3.890;2023-07-24T12:59:41;20.10;99.90
25436;DHT22;13363;52.772;-3.890;2023-07-24T13:02:07;20.10;99.90
25436;DHT22;13363;52.772;-3.890;2023-07-24T13:04:33;20.20;99.90
25436;DHT22;13363;52.772;-3.890;2023-07-24T13:06:59;20.30;99.90
25436;DHT22;13363;52.772;-3.890;2023-07-24T13:09:26;20.80;99.90
25436;DHT22;13363;52.772;-3.890;2023-07-24T13:11:53;20.80;99.90
25436;DHT22;13363;52.772;-3.890;2023-07-24T13:14:20;20.70;99.90
25436;DHT22;13363;52.772;-3.890;2023-07-24T13:16:46;20.60;99.90
25436;DHT22;13363;52.772;-3.890;2023-07-24T13:19:12;20.40;99.90
25436;DHT22;13363;52.772;-3.890;2023-07-24T13:21:38;20.10;99.90
25436;DHT22;13363;52.772;-3.890;2023-07-24T13:24:12;20.00;99.90
25436;DHT22;13363;52.772;-3.890;2023-07-24T13:26:42;20.10;99.90
25436;DHT22;13363;52.772;-3.890;2023-07-24T13:29:10;19.90;99.90
25436;DHT22;13363;52.772;-3.890;2023-07-24T13:31:36;19.90;99.90
25436;DHT22;13363;52.772;-3.890;2023-07-24T13:36:28;19.90;99.90
25436;DHT22;13363;52.772;-3.890;2023-07-24T13:41:20;19.50;99.90
25436;DHT22;13363;52.772;-3.890;2023-07-24T13:43:47;19.70;99.90
25436;DHT22;13363;52.772;-3.890;2023-07-24T13:46:12;19.70;99.90
25436;DHT22;13363;52.772;-3.890;2023-07-24T13:48:38;19.30;99.90
25436;DHT22;13363;52.772;-3.890;2023-07-24T13:51:04;19.20;99.90
25436;DHT22;13363;52.772;-3.890;2023-07-24T13:53:30;19.50;99.90
25436;DHT22;13363;52.772;-3.890;2023-07-24T13:55:56;19.70;99.90
25436;DHT22;13363;52.772;-3.890;2023-07-24T13:58:24;19.80;99.90
25436;DHT22;13363;52.772;-3.890;2023-07-24T14:00:50;19.70;99.90
25436;DHT22;13363;52.772;-3.890;2023-07-24T14:03:16;19.80;99.90
25436;DHT22;13363;52.772;-3.890;2023-07-24T14:05:43;20.00;99.90
25436;DHT22;13363;52.772;-3.890;2023-07-24T14:10:36;20.50;99.90
25436;DHT22;13363;52.772;-3.890;2023-07-24T14:13:03;20.40;99.90
25436;DHT22;13363;52.772;-3.890;2023-07-24T14:15:29;20.50;99.90
25436;DHT22;13363;52.772;-3.890;2023-07-24T14:17:55;20.30;99.90
25436;DHT22;13363;52.772;-3.890;2023-07-24T14:22:47;20.50;99.90
25436;DHT22;13363;52.772;-3.890;2023-07-24T14:25:13;20.50;99.90
25436;DHT22;13363;52.772;-3.890;2023-07-24T14:27:39;20.20;99.90
25436;DHT22;13363;52.772;-3.890;2023-07-24T14:30:05;19.90;99.90
25436;DHT22;13363;52.772;-3.890;2023-07-24T14:32:31;19.90;99.90
25436;DHT22;13363;52.772;-3.890;2023-07-24T14:34:58;19.80;99.90
25436;DHT22;13363;52.772;-3.890;2023-07-24T14:39:50;17.80;99.90
25436;DHT22;13363;52.772;-3.890;2023-07-24T14:42:16;18.80;99.90
25436;DHT22;13363;52.772;-3.890;2023-07-24T14:44:42;18.60;99.90
25436;DHT22;13363;52.772;-3.890;2023-07-24T14:47:08;19.10;99.90
25436;DHT22;13363;52.772;-3.890;2023-07-24T14:49:34;19.20;99.90
25436;DHT22;13363;52.772;-3.890;2023-07-24T14:51:59;19.70;99.90
25436;DHT22;13363;52.772;-3.890;2023-07-24T14:54:25;19.70;99.90
25436;DHT22;13363;52.772;-3.890;2023-07-24T15:01:43;19.50;99.90
25436;DHT22;13363;52.772;-3.890;2023-07-24T15:04:09;19.40;99.90
25436;DHT22;13363;52.772;-3.890;2023-07-24T15:09:01;19.30;99.90
25436;DHT22;13363;52.772;-3.890;2023-07-24T15:11:27;19.40;99.90
25436;DHT22;13363;52.772;-3.890;2023-07-24T15:13:52;19.60;99.90
25436;DHT22;13363;52.772;-3.890;2023-07-24T15:16:18;19.80;99.90
25436;DHT22;13363;52.772;-3.890;2023-07-24T15:18:44;19.80;99.90
25436;DHT22;13363;52.772;-3.890;2023-07-24T15:21:10;19.60;99.90
25436;DHT22;13363;52.772;-3.890;2023-07-24T15:23:36;19.50;99.90
25436;DHT22;13363;52.772;-3.890;2023-07-24T15:26:02;19.40;99.90
25436;DHT22;13363;52.772;-3.890;2023-07-24T15:28:28;19.30;99.90
25436;DHT22;13363;52.772;-3.890;2023-07-24T15:30:54;19.20;99.90
25436;DHT22;13363;52.772;-3.890;2023-07-24T15:33:20;19.00;99.90
25436;DHT22;13363;52.772;-3.890;2023-07-24T15:35:46;18.80;99.90
25436;DHT22;13363;52.772;-3.890;2023-07-24T15:38:12;19.00;99.90
25436;DHT22;13363;52.772;-3.890;2023-07-24T15:40:38;19.40;99.90
25436;DHT22;13363;52.772;-3.890;2023-07-24T15:43:07;19.70;99.90
25436;DHT22;13363;52.772;-3.890;2023-07-24T15:45:33;20.10;99.90
25436;DHT22;13363;52.772;-3.890;2023-07-24T15:47:59;20.30;99.90
25436;DHT22;13363;52.772;-3.890;2023-07-24T15:50:25;20.00;99.90
25436;DHT22;13363;52.772;-3.890;2023-07-24T15:52:50;20.00;99.90
25436;DHT22;13363;52.772;-3.890;2023-07-24T15:55:16;19.70;99.90
25436;DHT22;13363;52.772;-3.890;2023-07-24T15:57:42;19.50;99.90
25436;DHT22;13363;52.772;-3.890;2023-07-24T16:00:09;19.50;99.90
25436;DHT22;13363;52.772;-3.890;2023-07-24T16:02:35;19.60;99.90
25436;DHT22;13363;52.772;-3.890;2023-07-24T16:05:04;19.50;99.90
25436;DHT22;13363;52.772;-3.890;2023-07-24T16:07:30;19.60;99.90
25436;DHT22;13363;52.772;-3.890;2023-07-24T16:09:56;19.60;99.90
25436;DHT22;13363;52.772;-3.890;2023-07-24T16:12:22;19.40;99.90
25436;DHT22;13363;52.772;-3.890;2023-07-24T16:14:48;19.20;99.90
25436;DHT22;13363;52.772;-3.890;2023-07-24T16:17:14;19.00;99.90
25436;DHT22;13363;52.772;-3.890;2023-07-24T16:19:40;18.90;99.90
25436;DHT22;13363;52.772;-3.890;2023-07-24T16:22:07;19.00;99.90
25436;DHT22;13363;52.772;-3.890;2023-07-24T16:24:36;19.10;99.90
25436;DHT22;13363;52.772;-3.890;2023-07-24T16:27:02;19.20;99.90